This is the latest recevied weather packets stored in our database for station/object OE5RBO. If no packets are shown the sender has not sent any weather packets the latest 10 day(s).
| Time | Temp. | Humidity | Pressure | Rain* | Wind** | Luminosity | Snow |
|---|---|---|---|---|---|---|---|
| 1788000030 | 23.89° C | 68% | 1018.5 hPa | 0 mm | - | - | - |
| 1787999429 | 23.33° C | 67% | 1018.6 hPa | 0 mm | - | - | - |
| 1787998829 | 23.33° C | 69% | 1018.6 hPa | 0 mm | - | - | - |
| 1787998228 | 22.22° C | 72% | 1018.6 hPa | 0 mm | - | - | - |
| 1787997028 | 23.33° C | 69% | 1018.6 hPa | 0 mm | - | - | - |
| 1787996427 | 22.22° C | 71% | 1018.7 hPa | 0 mm | - | - | - |
| 1787995827 | 22.22° C | 72% | 1018.7 hPa | 0 mm | - | - | - |
| 1787995227 | 21.67° C | 73% | 1018.7 hPa | 0 mm | - | - | - |
| 1787994627 | 21.67° C | 71% | 1018.9 hPa | 0 mm | - | - | - |
| 1787994026 | 21.67° C | 72% | 1019 hPa | 0 mm | - | - | - |
| 1787993426 | 20.56° C | 73% | 1018.9 hPa | 0 mm | - | - | - |
| 1787992825 | 21.11° C | 72% | 1018.9 hPa | 0 mm | - | - | - |
| 1787992225 | 21.11° C | 73% | 1018.9 hPa | 0 mm | - | - | - |
| 1787991625 | 22.22° C | 71% | 1018.8 hPa | 0 mm | - | - | - |
| 1787991024 | 22.22° C | 71% | 1018.8 hPa | 0 mm | - | - | - |
| 1787990428 | 21.67° C | 74% | 1018.6 hPa | 0 mm | - | - | - |
| 1787989823 | 21.11° C | 73% | 1018.8 hPa | 0 mm | - | - | - |
| 1787989223 | 22.78° C | 68% | 1018.7 hPa | 0 mm | - | - | - |
| 1787987422 | 22.78° C | 74% | 1018.8 hPa | 0 mm | - | - | - |
| 1787986821 | 22.22° C | 74% | 1018.7 hPa | 0 mm | - | - | - |
| 1787986221 | 21.11° C | 76% | 1018.7 hPa | 0 mm | - | - | - |
| 1787985621 | 20° C | 79% | 1018.6 hPa | 0 mm | - | - | - |
| 1787985020 | 17.78° C | 86% | 1018.6 hPa | 0 mm | - | - | - |
| 1787983220 | 17.22° C | 87% | 1018.3 hPa | 0 mm | - | - | - |
| 1787982619 | 16.11° C | 89% | 1018.2 hPa | 0 mm | - | - | - |
* Rain since midnight (hover to see other rain measurements)
** Current wind speed in m/s (hover to see current wind gust speed)